Archival Weather

Chicago O'Hare International

Chicago, Illinois (KORD)

Report from: Saturday, November 5, 2022 1:51 PM CDT
Current time: Saturday, March 2, 2024 2:53 AM CST

Current weather – Weather history – Daily summaries
Weather forecast

Temperature11.1°C (52.0°F)
Dew point6.1°C (43.0°F)
Winds 19 kts (9.8 m/s, 21.9 mph) Southwest (220°)
Wind gusts 48 kts (24.7 m/s, 55.2 mph)
Peak wind 48 kts (24.7 m/s, 55.2 mph) South-Southwest (210°) at 18:42
Visibility10 mi. (16.1 km)
Clouds Ceiling: Broken clouds 2,600 ft. (792 m)
Broken clouds 3,200 ft. (975 m)
Overcast 4,600 ft. (1,402 m)
Altimeter29.44 in.Hg (997 mB)
Relative humidity71 %
Density altitude233 ft. (71 m)
Sea-level pressure99.7 kPa (997 mB, 29.44 in.Hg)
Remarks Automated weather observing station with precipitation discriminator
Flight conditions Marginal Visual Meteorological Conditions
Raw dataKORD 051851Z 22019G48KT 10SM BKN026 BKN032 OVC046 11/06 A2944 RMK AO2 PK WND 21048/1842 SLP968 T01110061
An error has occurred. This application may no longer respond until reloaded. Reload 🗙